Visibility from METAR not reflected and nor adjustable

Reported numerously in several topics… visibility (not due clouds) is not implemented nor adjustable.
Please implement this critical weather behavior.
An example when looking up bad weather airports.
Real METAR:
VOCI 221430Z 28003KT 4500 HZ FEW080 29/22 Q1011 NOSIG

SIM reported weather is not too off, 3KM visibility - see ATIS captured in the screenshot.
However, horizontal visibility is unaffected.

Please also vote for this very relevant wishlist topic, as it getting significant number of votes already: Ability to change Meteorological Visibility / RVR

Absolutely! Such a basic weather phenomena should have been there from day 0…

1 Like

There seems to be a lot of posts requesting improvements in visibility settings. It may be a good idea to go to some of the main ones, such as the one linked below, and hit the vote button. That way the votes don’t get split in several topics. I know each one is a little different.

1 Like

It is crazy not to have such a function in a flight simulator. They should spend less time on polishing each detail of UK !
I voted also.’

2 Likes

I asked this question in the last Q&A.
Here is a reply from Seb @ 49:38

My question

2 Likes